»·PEaware :: N218GT KHND-KHII

N218GT :: KHND-KHII

FLIGHT INFORMATION

Flight Status: Arrived
Operator: Privately registered:
United States
More flights under this callsign
Pilot: Joe C. (19058)
Aircraft: EMBRAER BANDEIRANTE
(E110)
More flights by this aircraft type
Origin: KHND Henderson
United States
Destination: KHII Lake Havasu City
United States
More flights between these airports :: More routes between these airports
Route: +LYNSY V237 EED
File this flight plan on PilotEdge
Remarks:
Altitude:
(Current/Filed)
7,000ft
Speed:
(Current/Filed)
180kts
Departed: 03-Sep-18 04:05 PM
Arrived: 03-Sep-18 04:42 PM
Distance/Time
Traveled:
93nm/0:37
Distance/Time
To Go:
Arrived

Flight Plot

Page will automatically refresh every two minutes.

Flight plan parsing failed; only flown route is shown


Map Options




Map Legend


Flown Route
Filed Route
Departure Airport
Arrival Airport
Navaid (VOR, NDB)
Fix

Horizontal Profiles

Position Reports

Time Latitude Longitude Heading Altitude Ground
Speed
03-Sep-18 15:38 35.978123 -115.137384 360 2409ft 0kts
03-Sep-18 15:39 35.978123 -115.137384 360 2409ft 0kts
03-Sep-18 15:40 35.978123 -115.137384 360 2409ft 0kts
03-Sep-18 15:41 35.978123 -115.137384 360 2409ft 0kts
03-Sep-18 15:42 35.978123 -115.137384 360 2409ft 0kts
03-Sep-18 15:43 35.978123 -115.137384 360 2409ft 0kts
03-Sep-18 15:44 35.978123 -115.137384 360 2409ft 0kts
03-Sep-18 15:45 35.978123 -115.137384 360 2409ft 0kts
03-Sep-18 15:46 35.978123 -115.137384 360 2409ft 0kts
03-Sep-18 15:47 35.978123 -115.137384 360 2409ft 0kts
03-Sep-18 15:48 35.978123 -115.137384 360 2409ft 0kts
03-Sep-18 15:49 35.978123 -115.137384 360 2409ft 0kts
03-Sep-18 15:50 35.978123 -115.137384 360 2409ft 0kts
03-Sep-18 15:51 35.978123 -115.137384 360 2409ft 0kts
03-Sep-18 15:52 35.978123 -115.137384 360 2409ft 0kts
03-Sep-18 15:53 35.978123 -115.137384 360 2409ft 0kts
03-Sep-18 15:54 35.978123 -115.137384 360 2409ft 0kts
03-Sep-18 15:55 35.978123 -115.137384 360 2409ft 0kts
03-Sep-18 15:56 35.978123 -115.137384 360 2409ft 0kts
03-Sep-18 15:57 35.978123 -115.137384 360 2409ft 0kts
03-Sep-18 15:58 35.978123 -115.137384 360 2409ft 0kts
03-Sep-18 15:59 35.978310 -115.137384 359 2408ft 5kts
03-Sep-18 16:00 35.979000 -115.137176 28 2406ft 0kts
03-Sep-18 16:01 35.979002 -115.137175 28 2406ft 0kts
03-Sep-18 16:01 35.980822 -115.136285 91 2399ft 0kts
03-Sep-18 16:03 35.980822 -115.136285 91 2399ft 0kts
03-Sep-18 16:04 35.980822 -115.136284 91 2399ft 0kts
03-Sep-18 16:04 35.980822 -115.136284 91 2399ft 0kts
03-Sep-18 16:05 35.980427 -115.135324 183 2401ft 14kts
03-Sep-18 16:06 35.953812 -115.137279 196 3073ft 121kts
03-Sep-18 16:08 35.914826 -115.146029 191 4767ft 123kts
03-Sep-18 16:08 35.886951 -115.152443 191 5896ft 123kts
03-Sep-18 16:09 35.853485 -115.160699 192 7136ft 127kts
03-Sep-18 16:10 35.808780 -115.171751 191 6993ft 178kts
03-Sep-18 16:11 35.766293 -115.160991 102 7011ft 188kts
03-Sep-18 16:12 35.756136 -115.096526 108 6982ft 193kts
03-Sep-18 16:13 35.742502 -115.041974 111 6962ft 182kts
03-Sep-18 16:14 35.728111 -114.990433 111 6952ft 178kts
03-Sep-18 16:15 35.711805 -114.933467 112 6945ft 175kts
03-Sep-18 16:16 35.695516 -114.876998 112 6948ft 174kts
03-Sep-18 16:17 35.679252 -114.820780 111 6948ft 175kts
03-Sep-18 16:18 35.662943 -114.765231 121 7072ft 167kts
03-Sep-18 16:19 35.621324 -114.744670 167 7042ft 168kts
03-Sep-18 16:20 35.605701 -114.739649 167 7036ft 169kts
03-Sep-18 16:21 35.566896 -114.726648 166 7019ft 170kts
03-Sep-18 16:22 35.521079 -114.711843 166 6995ft 171kts
03-Sep-18 16:23 35.474934 -114.697146 166 6992ft 171kts
03-Sep-18 16:24 35.428794 -114.682504 166 6992ft 171kts
03-Sep-18 16:25 35.382795 -114.667927 166 6991ft 171kts
03-Sep-18 16:26 35.336880 -114.653393 166 6991ft 171kts
03-Sep-18 16:27 35.290816 -114.638832 166 6991ft 171kts
03-Sep-18 16:28 35.244907 -114.624337 166 6991ft 170kts
03-Sep-18 16:29 35.198851 -114.609813 166 6991ft 171kts
03-Sep-18 16:30 35.152909 -114.595342 166 6991ft 171kts
03-Sep-18 16:31 35.106866 -114.580857 166 6991ft 171kts
03-Sep-18 16:32 35.060955 -114.566431 166 6991ft 171kts
03-Sep-18 16:33 35.014782 -114.551933 166 6979ft 171kts
03-Sep-18 16:34 34.963920 -114.535974 166 6054ft 201kts
03-Sep-18 16:35 34.906181 -114.517885 166 4533ft 218kts
03-Sep-18 16:36 34.853008 -114.501312 166 4517ft 183kts
03-Sep-18 16:37 34.805022 -114.486155 166 4523ft 175kts
03-Sep-18 16:38 34.758631 -114.469242 155 4533ft 175kts
03-Sep-18 16:39 34.713905 -114.449233 176 4516ft 170kts
03-Sep-18 16:40 34.663911 -114.431143 148 3107ft 192kts
03-Sep-18 16:41 34.626191 -114.401181 148 1970ft 118kts
03-Sep-18 16:42 34.598449 -114.378854 144 1233ft 110kts
03-Sep-18 16:43 34.575233 -114.361190 149 760ft 38kts
03-Sep-18 16:44 34.570444 -114.359120 151 747ft 13kts
03-Sep-18 16:45 34.569306 -114.359331 53 741ft 0kts
03-Sep-18 16:55 34.569306 -114.359331 53 741ft 0kts

Navigation Log

Ident Type
Flight plan parsing failed, navigation log unavailable